KDRA/DRA METAR and TAF weather

Enter ICAO airport designator
Station Type Date Time Source
KDRA METAR 2018/04/21 20:55 UTC NOAA

KDRA 212055Z AUTO 10SM CLR 27/M08 A3009 RMK AO2 SLP155 T02671078 56015


Station Type Date Time Source
KDRA Decoded METAR 2018/04/21 20:55 UTC NOAA

DESERT ROCK AIRPORT, NV, United States (KDRA) 36-38N 116-02W 1006M
Apr 21, 2018 - 04:55 PM EDT / 2018.04.21 2055 UTC
Visibility: 10 mile(s):0
Sky conditions: clear
Temperature: 80.1 F (26.7 C)
Dew Point: 18.0 F (-7.8 C)
Relative Humidity: 9%
Pressure (altimeter): 30.09 in. Hg (1018 hPa)
Pressure tendency: 0.04 inches (1.5 hPa) lower than three hours ago
ob: KDRA 212055Z AUTO 10SM CLR 27/M08 A3009 RMK AO2 SLP155 T02671078 56015
cycle: 21

Station Type Date Time Source
KDRA TAF 2011/12/07 06:36 UTC NOAA

TAF KDRA 070532Z 0706/0806 VRB04KT P6SM SKC


Example: see airport list